Time;durP1;ratioP1;P1;durP2;ratioP2;P2;SDS_P1;SDS_P2;PMS_P1;PMS_P2;Temp;Humidity;BMP_temperature;BMP_pressure;BME280_temperature;BME280_humidity;BME280_pressure;Samples;Min_cycle;Max_cycle;Signal;HPM_P1;HPM_P2
2024/01/01 00:02:20;;;;;;;964.65;531.05;;;4.30;99.90;;;;;;7553004;19;20647;-71
2024/01/01 00:04:53;;;;;;;235.80;116.82;;;2.50;99.90;;;;;;7557020;19;20030;-71
2024/01/01 00:07:25;;;;;;;197.43;99.22;;;4.20;99.90;;;;;;7489388;19;20820;-71
2024/01/01 00:09:57;;;;;;;189.10;94.95;;;4.30;99.90;;;;;;7544734;19;20684;-71
2024/01/01 00:12:30;;;;;;;186.35;89.65;;;4.20;99.90;;;;;;7550495;19;20668;-71
2024/01/01 00:15:03;;;;;;;165.73;84.97;;;4.30;99.90;;;;;;7571223;19;20019;-71
2024/01/01 00:17:36;;;;;;;151.48;76.60;;;4.30;99.90;;;;;;7558078;19;20018;-72
2024/01/01 15:23:27;;;;;;;11.13;3.00;;;5.90;99.90;;;;;;7576604;19;20401;-73
2024/01/01 15:26:00;;;;;;;;;;;5.70;99.90;;;;;;7595241;19;20968;-73
2024/01/01 15:28:39;;;;;;;10.88;2.40;;;5.70;99.90;;;;;;7588616;19;19915;-72
2024/01/01 15:31:16;;;;;;;6.45;2.72;;;5.80;99.90;;;;;;7584976;19;20015;-73
2024/01/01 15:33:48;;;;;;;7.57;1.80;;;5.80;99.90;;;;;;7603874;19;20022;-74
2024/01/01 15:36:21;;;;;;;10.65;2.30;;;5.80;99.90;;;;;;7608941;19;20006;-73
2024/01/01 15:38:55;;;;;;;8.68;2.05;;;5.60;99.90;;;;;;7609834;19;20018;-72
2024/01/01 15:41:28;;;;;;;9.43;2.50;;;5.50;99.90;;;;;;7597433;19;20010;-73
2024/01/01 15:44:00;;;;;;;5.97;1.98;;;5.40;99.90;;;;;;7600168;19;20014;-73
2024/01/01 15:46:33;;;;;;;12.80;2.45;;;5.20;99.90;;;;;;7575916;19;20810;-73
2024/01/01 15:49:06;;;;;;;8.63;2.15;;;5.20;99.90;;;;;;7585235;19;20025;-72
2024/01/01 15:51:38;;;;;;;7.53;2.17;;;5.20;99.90;;;;;;7589681;19;20025;-73
2024/01/01 15:54:11;;;;;;;16.85;6.10;;;5.10;99.90;;;;;;7603932;19;20018;-73
2024/01/01 15:56:49;;;;;;;16.58;4.82;;;5.10;99.90;;;;;;7604153;19;20011;-73
2024/01/01 15:59:22;;;;;;;29.58;6.40;;;5.10;99.90;;;;;;7600323;19;20494;-72
2024/01/01 16:01:54;;;;;;;19.67;6.22;;;5.00;99.90;;;;;;7588153;19;20060;-72
2024/01/01 16:04:27;;;;;;;23.95;8.80;;;5.00;99.90;;;;;;7591956;19;20057;-72
2024/01/01 16:07:00;;;;;;;13.95;5.30;;;5.00;99.90;;;;;;7594327;19;20025;-72
2024/01/01 16:09:37;;;;;;;8.13;3.88;;;5.00;99.90;;;;;;7601787;19;20472;-72
2024/01/01 16:12:09;;;;;;;11.52;4.25;;;5.00;99.90;;;;;;7605087;19;22777;-73
2024/01/01 16:14:42;;;;;;;12.88;3.70;;;5.00;99.90;;;;;;7605145;19;20018;-74
2024/01/01 16:17:14;;;;;;;7.63;3.40;;;5.00;99.90;;;;;;7609687;19;20023;-72
2024/01/01 16:19:49;;;;;;;11.05;2.75;;;5.00;99.90;;;;;;7597094;19;20026;-73
2024/01/01 16:22:23;;;;;;;11.88;3.33;;;5.00;99.90;;;;;;7598846;19;20006;-73
2024/01/01 16:24:55;;;;;;;9.38;3.00;;;5.00;99.90;;;;;;7572862;19;20025;-73
2024/01/01 16:27:29;;;;;;;14.15;3.75;;;5.00;99.90;;;;;;7604088;19;20030;-72
2024/01/01 16:30:10;;;;;;;7.13;3.80;;;5.00;99.90;;;;;;7580022;19;20010;-74
2024/01/01 16:32:42;;;;;;;9.85;5.05;;;5.00;99.90;;;;;;7568500;19;20018;-73
2024/01/01 16:35:16;;;;;;;9.52;4.88;;;4.90;99.90;;;;;;7558212;19;20025;-72
2024/01/01 16:37:50;;;;;;;18.95;8.55;;;4.90;99.90;;;;;;7559006;19;20034;-72
2024/01/01 16:40:23;;;;;;;25.77;11.10;;;5.00;99.90;;;;;;7578830;19;20597;-74
2024/01/01 16:42:55;;;;;;;17.23;8.23;;;5.00;99.90;;;;;;7559047;19;20011;-73
2024/01/01 16:45:28;;;;;;;16.20;8.27;;;5.00;99.90;;;;;;7569193;19;20024;-72
2024/01/01 16:48:00;;;;;;;15.18;5.82;;;5.00;99.90;;;;;;7567590;19;20019;-72
2024/01/01 16:50:33;;;;;;;14.50;5.25;;;4.90;99.90;;;;;;7572501;19;20865;-73
2024/01/01 16:53:06;;;;;;;15.40;5.57;;;4.90;99.90;;;;;;7574572;19;20020;-73
2024/01/01 16:55:39;;;;;;;9.83;4.87;;;5.00;99.90;;;;;;7575227;19;20022;-70
2024/01/01 16:58:11;;;;;;;19.17;5.80;;;5.00;99.90;;;;;;7577312;19;21159;-72
2024/01/01 17:00:43;;;;;;;19.25;6.78;;;5.00;99.90;;;;;;7563091;19;20022;-71
2024/01/01 17:03:16;;;;;;;27.67;10.82;;;5.00;99.90;;;;;;7567732;19;20042;-71
2024/01/01 17:05:50;;;;;;;13.52;5.90;;;5.00;99.90;;;;;;7565300;19;20010;-72
2024/01/01 17:08:22;;;;;;;14.13;5.63;;;5.00;99.90;;;;;;7566822;19;20020;-73
2024/01/01 17:10:55;;;;;;;12.90;7.43;;;5.10;99.90;;;;;;7567672;19;20026;-72
2024/01/01 17:13:28;;;;;;;21.00;7.72;;;5.10;99.90;;;;;;7566629;19;20014;-71
2024/01/01 17:16:04;;;;;;;14.13;6.07;;;5.00;99.90;;;;;;7566411;19;20015;-72
2024/01/01 17:18:36;;;;;;;11.13;5.38;;;5.10;99.90;;;;;;7563744;19;20053;-74
2024/01/01 17:21:10;;;;;;;13.48;4.97;;;5.00;99.90;;;;;;7561521;19;20350;-73
2024/01/01 17:23:42;;;;;;;10.55;5.18;;;5.00;99.90;;;;;;7566720;19;20018;-73
2024/01/01 17:26:16;;;;;;;14.60;5.00;;;5.10;99.90;;;;;;7565799;19;20018;-72
2024/01/01 17:28:49;;;;;;;11.48;4.07;;;5.10;99.90;;;;;;7545049;19;20612;-73
2024/01/01 17:31:21;;;;;;;15.93;4.85;;;5.10;99.90;;;;;;7567054;19;20014;-72
2024/01/01 17:33:54;;;;;;;22.17;5.82;;;5.00;99.90;;;;;;7562093;19;20027;-72
2024/01/01 17:36:29;;;;;;;22.05;7.25;;;5.00;99.90;;;;;;7565533;19;20813;-72
2024/01/01 17:39:03;;;;;;;14.48;4.03;;;5.00;99.90;;;;;;7562541;19;20013;-72
2024/01/01 17:41:37;;;;;;;21.53;6.10;;;5.10;99.90;;;;;;7561855;19;20018;-73
2024/01/01 17:44:10;;;;;;;21.98;7.07;;;5.10;99.90;;;;;;7568113;19;20014;-73
2024/01/01 17:46:43;;;;;;;16.27;5.63;;;5.10;99.90;;;;;;7567139;19;20022;-73
2024/01/01 17:49:16;;;;;;;12.95;5.60;;;5.10;99.90;;;;;;7558069;19;20025;-72
2024/01/01 17:51:48;;;;;;;15.30;5.25;;;5.00;99.90;;;;;;7548195;19;20033;-72
2024/01/01 17:54:21;;;;;;;10.83;4.93;;;4.90;99.90;;;;;;7574444;19;20031;-73
2024/01/01 17:56:54;;;;;;;11.40;4.28;;;5.00;99.90;;;;;;7572625;19;20339;-72
2024/01/01 17:59:27;;;;;;;12.02;4.95;;;5.00;99.90;;;;;;7563937;19;20021;-75
2024/01/01 18:02:00;;;;;;;14.20;5.97;;;5.00;99.90;;;;;;7567866;19;20003;-73
2024/01/01 18:04:32;;;;;;;13.27;6.38;;;4.90;99.90;;;;;;7576570;19;20404;-72
2024/01/01 18:07:05;;;;;;;16.77;6.80;;;5.00;99.90;;;;;;7575599;19;22276;-74
2024/01/01 18:09:37;;;;;;;16.77;5.90;;;5.00;99.90;;;;;;7563220;19;20025;-74
2024/01/01 18:12:10;;;;;;;12.80;5.23;;;5.00;99.90;;;;;;7012590;19;9999622;-73
2024/01/01 18:14:43;;;;;;;10.40;4.70;;;5.00;99.90;;;;;;7587263;19;20920;-72
2024/01/01 18:17:18;;;;;;;15.25;4.63;;;5.10;99.90;;;;;;7593052;19;20010;-73
2024/01/01 18:19:52;;;;;;;8.93;3.08;;;5.00;99.90;;;;;;7599041;19;20035;-73
2024/01/01 18:22:27;;;;;;;9.68;3.78;;;5.00;99.90;;;;;;7587890;19;20014;-72
2024/01/01 18:24:59;;;;;;;8.80;4.35;;;5.00;99.90;;;;;;7580002;19;20430;-72
2024/01/01 18:27:32;;;;;;;18.10;4.50;;;4.90;99.90;;;;;;7590522;19;20030;-73
2024/01/01 18:30:06;;;;;;;13.23;4.25;;;4.90;99.90;;;;;;7578713;19;23506;-72
2024/01/01 18:32:39;;;;;;;10.52;4.40;;;5.00;99.90;;;;;;7585103;19;20007;-72
2024/01/01 18:35:12;;;;;;;10.45;5.00;;;5.10;99.90;;;;;;7586046;19;20011;-72
2024/01/01 18:37:44;;;;;;;12.00;5.18;;;5.10;99.90;;;;;;7589031;19;20767;-71
2024/01/01 18:40:20;;;;;;;11.88;4.18;;;5.00;99.90;;;;;;7582027;19;20503;-71
2024/01/01 18:42:53;;;;;;;12.07;5.10;;;5.00;99.90;;;;;;7582093;19;20042;-72
2024/01/01 18:45:26;;;;;;;;;;;5.00;99.90;;;;;;7578947;19;20010;-73
2024/01/01 18:47:58;;;;;;;7.63;3.22;;;5.10;99.90;;;;;;7567407;19;19918;-72
2024/01/01 18:50:31;;;;;;;8.93;3.38;;;5.10;99.90;;;;;;7576014;19;22222;-72
2024/01/01 18:53:03;;;;;;;7.63;3.03;;;5.10;99.90;;;;;;7572968;19;21045;-73
2024/01/01 18:55:41;;;;;;;8.20;2.70;;;5.10;99.90;;;;;;7582924;19;20029;-75
2024/01/01 18:58:13;;;;;;;85.60;44.42;;;5.30;99.90;;;;;;7561655;19;20026;-72
2024/01/01 19:00:45;;;;;;;119.30;62.13;;;5.20;99.90;;;;;;7569909;19;20042;-72
2024/01/01 19:03:18;;;;;;;159.27;90.57;;;5.20;99.90;;;;;;7586627;19;20085;-71
2024/01/01 19:05:50;;;;;;;176.98;95.65;;;5.10;99.90;;;;;;7575046;19;20751;-73
2024/01/01 19:08:24;;;;;;;23.77;8.82;;;5.10;99.90;;;;;;7577387;19;20019;-73
2024/01/01 19:10:57;;;;;;;7.07;2.85;;;5.10;99.90;;;;;;7563992;19;20021;-72
2024/01/01 19:13:30;;;;;;;10.50;3.60;;;5.30;99.90;;;;;;7558402;19;20026;-73
2024/01/01 19:16:02;;;;;;;10.02;3.83;;;5.20;99.90;;;;;;7569424;19;20105;-73
2024/01/01 19:18:35;;;;;;;9.23;3.95;;;5.10;99.90;;;;;;7576602;19;20053;-73
2024/01/01 19:21:07;;;;;;;9.60;3.25;;;5.20;99.90;;;;;;7569929;19;20035;-72
2024/01/01 19:23:42;;;;;;;6.07;3.33;;;5.10;99.90;;;;;;7581055;19;20015;-73
2024/01/01 19:26:15;;;;;;;11.85;3.42;;;5.10;99.90;;;;;;7558927;19;20045;-72
2024/01/01 19:28:47;;;;;;;6.47;3.70;;;5.10;99.90;;;;;;7558007;19;20010;-72
2024/01/01 19:31:20;;;;;;;8.80;3.42;;;5.00;99.90;;;;;;7558428;19;20022;-73
2024/01/01 19:33:52;;;;;;;8.70;2.90;;;4.90;99.90;;;;;;7551875;19;20022;-74
2024/01/01 19:36:25;;;;;;;4.47;2.73;;;5.00;99.90;;;;;;7573472;19;20086;-73
2024/01/01 19:38:57;;;;;;;9.00;2.72;;;5.10;99.90;;;;;;7566500;19;20041;-72
2024/01/01 19:41:29;;;;;;;7.75;3.03;;;5.10;99.90;;;;;;7558755;19;20018;-73
2024/01/01 19:44:01;;;;;;;7.32;2.60;;;5.10;99.90;;;;;;7563387;19;20035;-74
2024/01/01 19:46:34;;;;;;;5.32;2.30;;;5.00;99.90;;;;;;7573160;19;20011;-73
2024/01/01 19:49:06;;;;;;;6.60;2.85;;;5.10;99.90;;;;;;7575993;19;20116;-73
2024/01/01 19:51:40;;;;;;;6.40;2.92;;;5.00;99.90;;;;;;7564892;19;20391;-74
2024/01/01 19:54:12;;;;;;;;;;;5.00;99.90;;;;;;7553748;19;20538;-71
2024/01/01 19:56:45;;;;;;;8.13;2.33;;;4.90;99.90;;;;;;7572309;19;19923;-71
2024/01/01 19:59:17;;;;;;;4.22;2.50;;;4.90;99.90;;;;;;7555036;19;20546;-72
2024/01/01 20:01:49;;;;;;;13.77;3.30;;;4.90;99.90;;;;;;7576371;19;20079;-72
2024/01/01 20:04:22;;;;;;;6.47;2.50;;;4.90;99.90;;;;;;7590057;19;20094;-72
2024/01/01 20:06:58;;;;;;;6.55;2.97;;;5.00;99.90;;;;;;7543758;19;20047;-72
2024/01/01 20:09:30;;;;;;;8.63;2.42;;;5.00;99.90;;;;;;7561733;19;20153;-73
2024/01/01 20:12:03;;;;;;;10.95;2.90;;;4.90;99.90;;;;;;7567457;19;20030;-72
2024/01/01 20:14:35;;;;;;;4.90;1.92;;;4.90;99.90;;;;;;7554276;19;20492;-73
2024/01/01 20:17:08;;;;;;;5.22;2.13;;;4.90;99.90;;;;;;7570627;19;20022;-72
2024/01/01 20:19:41;;;;;;;7.33;2.60;;;4.90;99.90;;;;;;7577776;19;20010;-73
2024/01/01 20:22:13;;;;;;;10.95;2.40;;;4.90;99.90;;;;;;7545350;19;20990;-72
2024/01/01 20:24:45;;;;;;;4.75;1.50;;;4.90;99.90;;;;;;7571152;19;20034;-72
2024/01/01 20:27:18;;;;;;;6.50;2.17;;;4.90;99.90;;;;;;7576073;19;20018;-72
2024/01/01 20:29:50;;;;;;;6.72;2.30;;;4.90;99.90;;;;;;7583930;19;20047;-73
2024/01/01 20:32:23;;;;;;;7.80;1.97;;;5.00;99.90;;;;;;7570176;19;20535;-72
2024/01/01 20:34:55;;;;;;;7.07;2.58;;;5.00;99.90;;;;;;7578023;19;20670;-72
2024/01/01 20:37:30;;;;;;;4.80;1.70;;;5.00;99.90;;;;;;7558621;19;20074;-73
2024/01/01 20:40:02;;;;;;;8.82;2.90;;;5.00;99.90;;;;;;7562538;19;21174;-73
2024/01/01 20:42:36;;;;;;;6.15;2.40;;;5.00;99.90;;;;;;7581355;19;20014;-72
2024/01/01 20:45:08;;;;;;;8.50;2.25;;;5.00;99.90;;;;;;7568814;19;21734;-73
2024/01/01 20:47:40;;;;;;;5.45;2.30;;;5.00;99.90;;;;;;7574589;19;20350;-71
2024/01/01 20:50:13;;;;;;;11.55;2.47;;;4.90;99.90;;;;;;7570671;19;20021;-73
2024/01/01 20:52:46;;;;;;;8.82;2.67;;;4.90;99.90;;;;;;7564634;19;20022;-72
2024/01/01 20:55:27;;;;;;;9.13;3.35;;;5.00;99.90;;;;;;7558415;19;20014;-73
2024/01/01 20:58:00;;;;;;;11.95;4.28;;;4.90;99.90;;;;;;7563629;19;20916;-72
2024/01/01 21:00:34;;;;;;;11.07;3.85;;;4.90;99.90;;;;;;7561247;19;20048;-73
2024/01/01 21:03:06;;;;;;;6.35;3.28;;;5.00;99.90;;;;;;7567709;19;20693;-71
2024/01/01 21:05:40;;;;;;;9.63;3.73;;;4.80;99.90;;;;;;7571973;19;20010;-72
2024/01/01 21:08:12;;;;;;;8.25;3.92;;;4.80;99.90;;;;;;7572601;19;20355;-73
2024/01/01 21:10:44;;;;;;;9.05;4.28;;;4.70;99.90;;;;;;7572705;19;20924;-73
2024/01/01 21:13:17;;;;;;;13.30;3.80;;;4.60;99.90;;;;;;7528941;19;20015;-71
2024/01/01 21:15:49;;;;;;;11.30;4.50;;;4.50;99.90;;;;;;7569588;19;20021;-73
2024/01/01 21:18:22;;;;;;;16.42;6.57;;;4.50;99.90;;;;;;7572325;19;20364;-72
2024/01/01 21:20:55;;;;;;;15.55;8.13;;;4.40;99.90;;;;;;7571178;19;20022;-71
2024/01/01 21:23:27;;;;;;;17.63;8.05;;;4.30;99.90;;;;;;7565098;19;20015;-72
2024/01/01 21:26:00;;;;;;;13.45;7.15;;;4.20;99.90;;;;;;7563750;19;20098;-73
2024/01/01 21:28:33;;;;;;;15.15;6.75;;;4.20;99.90;;;;;;7565897;19;20014;-73
2024/01/01 21:31:05;;;;;;;11.18;5.32;;;4.10;99.90;;;;;;7568345;19;20023;-73
2024/01/01 21:33:37;;;;;;;14.90;5.85;;;4.00;99.90;;;;;;7572199;19;20016;-74
2024/01/01 21:36:10;;;;;;;12.32;5.32;;;3.90;99.90;;;;;;7558874;19;20052;-73
2024/01/01 21:38:42;;;;;;;11.48;5.43;;;4.00;99.90;;;;;;7570449;19;21327;-73
2024/01/01 21:41:15;;;;;;;12.18;5.88;;;4.10;99.90;;;;;;7563631;19;20050;-73
2024/01/01 21:43:47;;;;;;;10.43;5.20;;;4.10;99.90;;;;;;7567252;19;20014;-73
2024/01/01 21:46:20;;;;;;;11.75;5.35;;;4.00;99.90;;;;;;7555743;19;20029;-73
2024/01/01 21:48:53;;;;;;;14.00;6.93;;;4.00;99.90;;;;;;7579963;19;20571;-73
2024/01/01 21:51:25;;;;;;;14.23;6.50;;;4.80;99.90;;;;;;7568437;19;20025;-73
2024/01/01 21:53:58;;;;;;;10.15;4.10;;;4.00;99.90;;;;;;7556409;19;20279;-74
2024/01/01 21:56:30;;;;;;;9.20;4.22;;;4.10;99.90;;;;;;7563426;19;20052;-73
2024/01/01 21:59:03;;;;;;;16.77;4.88;;;4.10;99.90;;;;;;7578959;19;20022;-74
2024/01/01 22:01:35;;;;;;;12.55;4.40;;;4.10;99.90;;;;;;6029167;19;10000524;-74
2024/01/01 22:04:08;;;;;;;12.90;4.75;;;4.10;99.90;;;;;;7572039;19;20020;-74
2024/01/01 22:06:41;;;;;;;12.47;4.33;;;4.00;99.90;;;;;;7556769;19;20640;-74
2024/01/01 22:09:14;;;;;;;12.18;4.57;;;3.90;99.90;;;;;;7540455;19;20022;-74
2024/01/01 22:11:46;;;;;;;6.88;3.80;;;4.00;99.90;;;;;;7554450;19;22223;-73
2024/01/01 22:14:18;;;;;;;7.85;3.13;;;4.10;99.90;;;;;;7546135;19;20023;-73
2024/01/01 22:16:50;;;;;;;8.90;3.75;;;4.10;99.90;;;;;;7546823;19;20019;-75
2024/01/01 22:19:23;;;;;;;5.70;3.38;;;4.00;99.90;;;;;;7529416;19;20014;-73
2024/01/01 22:21:55;;;;;;;17.15;4.03;;;4.00;99.90;;;;;;7525236;19;21080;-73
